Wimbledon, North Dakota
Current Conditions -  °F | °C
As of 10:27 AM on Thursday 30 Oct 2014 (Local Time) from KJMS Reporting Station
Broken Clouds Broken Clouds  
Wind Chill: -5°   Ceiling: 1000
Heat Index:   Visibility: 10mi
Dew Point: -1°   Wind: 17mph
Humidity: 89%   Direction: 340°NNW
Pressure: 30.26"   Gusts: NA
Location:  47.17°N, 98.46°W
Report Text: KJMS 301527Z AUTO 34015KT 10SM BKN010 01/M01 A3026 RMK AO2 T00111006
Loading
Personal Weather Stations






























Interactive Weather Map
Tropical Storm Tracking
New forecast layout! Learn more

10-Day Weather Forecast

Advertisements
Track Severe Weather on mobile